createdAt,value
2023-04-20T00:00:49.347Z,39.89
2023-04-20T00:01:49.412Z,39.88
2023-04-20T00:02:49.583Z,39.87
2023-04-20T00:03:49.562Z,39.85
2023-04-20T00:04:49.364Z,39.85
2023-04-20T00:05:49.368Z,39.84
2023-04-20T00:06:49.359Z,39.83
2023-04-20T00:07:49.349Z,39.82
2023-04-20T00:08:49.332Z,39.82
2023-04-20T00:09:49.342Z,39.83
2023-04-20T00:10:49.341Z,39.83
2023-04-20T00:11:49.298Z,39.81
2023-04-20T00:12:49.296Z,39.84
2023-04-20T00:13:49.284Z,39.82
2023-04-20T00:14:49.299Z,39.84
2023-04-20T00:15:49.319Z,39.81
2023-04-20T00:16:49.391Z,39.81
2023-04-20T00:17:49.387Z,39.81
2023-04-20T00:18:49.319Z,39.82
2023-04-20T00:19:49.326Z,39.83
2023-04-20T00:20:49.313Z,39.84
2023-04-20T00:21:49.309Z,39.85
2023-04-20T00:22:49.308Z,39.85
2023-04-20T00:23:49.318Z,39.85
2023-04-20T00:24:49.299Z,39.83
2023-04-20T00:25:49.300Z,39.83
2023-04-20T00:26:49.318Z,39.83
2023-04-20T00:27:49.299Z,39.82
2023-04-20T00:28:49.272Z,39.82
2023-04-20T00:29:49.270Z,39.81
2023-04-20T00:30:49.266Z,39.84
2023-04-20T00:31:49.250Z,39.86
2023-04-20T00:32:49.272Z,39.88
2023-04-20T00:33:49.222Z,39.89
2023-04-20T00:34:49.210Z,39.87
2023-04-20T00:35:49.202Z,39.86
2023-04-20T00:36:49.199Z,39.89
2023-04-20T00:37:49.196Z,39.88
2023-04-20T00:38:49.194Z,39.86
2023-04-20T00:39:49.174Z,39.89
2023-04-20T00:40:49.167Z,39.89
2023-04-20T00:41:49.158Z,39.89
2023-04-20T00:42:49.181Z,39.89
2023-04-20T00:43:49.152Z,39.88
2023-04-20T00:44:49.144Z,39.87
2023-04-20T00:45:49.177Z,39.90
2023-04-20T00:46:49.140Z,39.90
2023-04-20T00:47:49.189Z,39.88
2023-04-20T00:48:49.124Z,39.89
2023-04-20T00:49:49.138Z,39.89
2023-04-20T00:50:49.121Z,39.89
2023-04-20T00:51:49.119Z,39.88
2023-04-20T00:52:49.119Z,39.92
2023-04-20T00:53:49.105Z,39.92
2023-04-20T00:54:49.098Z,39.90
2023-04-20T00:55:49.090Z,39.90
2023-04-20T00:56:49.083Z,39.90
2023-04-20T00:57:49.076Z,39.89
2023-04-20T00:58:49.107Z,39.90
2023-04-20T00:59:49.075Z,39.93
2023-04-20T01:00:49.054Z,39.92
2023-04-20T01:01:49.087Z,39.94
2023-04-20T01:02:49.226Z,39.94
2023-04-20T01:03:49.311Z,39.93
2023-04-20T01:04:49.056Z,39.89
2023-04-20T01:05:49.060Z,39.92
2023-04-20T01:06:49.047Z,39.91
2023-04-20T01:07:49.040Z,39.90
2023-04-20T01:08:49.036Z,39.91
2023-04-20T01:09:49.024Z,39.93
2023-04-20T01:10:49.029Z,39.93
2023-04-20T01:11:49.033Z,39.92
2023-04-20T01:12:49.018Z,39.92
2023-04-20T01:13:49.015Z,39.91
2023-04-20T01:14:49.024Z,39.93
2023-04-20T01:15:49.073Z,39.94
2023-04-20T01:16:48.997Z,39.92
2023-04-20T01:17:49.082Z,39.91
2023-04-20T01:18:48.970Z,39.91
2023-04-20T01:19:48.984Z,39.91
2023-04-20T01:20:48.971Z,39.93
2023-04-20T01:21:48.970Z,39.91
2023-04-20T01:22:48.972Z,39.93
2023-04-20T01:23:48.968Z,39.92
2023-04-20T01:24:48.961Z,39.94
2023-04-20T01:25:48.949Z,39.97
2023-04-20T01:26:48.990Z,39.93
2023-04-20T01:27:48.950Z,39.95
2023-04-20T01:28:48.970Z,39.94
2023-04-20T01:29:48.935Z,39.93
2023-04-20T01:30:48.953Z,39.95
2023-04-20T01:31:48.995Z,39.96
2023-04-20T01:32:48.973Z,39.95
2023-04-20T01:33:48.916Z,39.96
2023-04-20T01:34:48.914Z,39.93
2023-04-20T01:35:48.921Z,39.94
2023-04-20T01:36:48.914Z,39.93
2023-04-20T01:37:48.899Z,39.95
2023-04-20T01:38:48.897Z,39.94
2023-04-20T01:39:48.939Z,39.93
2023-04-20T01:40:48.901Z,39.93
2023-04-20T01:41:48.874Z,39.92
2023-04-20T01:42:48.877Z,39.93
2023-04-20T01:43:48.904Z,39.92
2023-04-20T01:44:48.864Z,39.92
2023-04-20T01:45:48.896Z,39.95
2023-04-20T01:46:48.984Z,39.92
2023-04-20T01:47:48.925Z,39.92
2023-04-20T01:48:48.882Z,39.90
2023-04-20T01:49:48.871Z,39.93
2023-04-20T01:50:48.866Z,39.90
2023-04-20T01:51:48.851Z,39.91
2023-04-20T01:52:48.850Z,39.89
2023-04-20T01:53:48.853Z,39.89
2023-04-20T01:54:48.845Z,39.90
2023-04-20T01:55:48.828Z,39.92
2023-04-20T01:56:48.838Z,39.92
2023-04-20T01:57:48.846Z,39.92
2023-04-20T01:58:48.823Z,39.91
2023-04-20T01:59:48.816Z,39.88
2023-04-20T02:00:48.819Z,39.92
2023-04-20T02:01:48.834Z,39.89
2023-04-20T02:02:48.907Z,39.89
2023-04-20T02:03:49.101Z,39.86
2023-04-20T02:04:48.793Z,39.89
2023-04-20T02:05:48.793Z,39.89
2023-04-20T02:06:48.787Z,39.91
2023-04-20T02:07:48.790Z,39.91
2023-04-20T02:08:48.785Z,39.90
2023-04-20T02:09:48.798Z,39.91
2023-04-20T02:10:48.767Z,39.90
2023-04-20T02:11:48.759Z,39.90
2023-04-20T02:12:48.754Z,39.92
2023-04-20T02:13:48.760Z,39.87
2023-04-20T02:14:48.749Z,39.90
2023-04-20T02:15:48.787Z,39.88
2023-04-20T02:16:48.766Z,39.90
2023-04-20T02:17:48.753Z,39.90
2023-04-20T02:18:48.773Z,39.88
2023-04-20T02:19:48.742Z,39.89
2023-04-20T02:20:48.748Z,39.90
2023-04-20T02:21:48.744Z,39.92
2023-04-20T02:22:48.738Z,39.87
2023-04-20T02:23:48.739Z,39.88
2023-04-20T02:24:48.738Z,39.87
2023-04-20T02:25:48.737Z,39.86
2023-04-20T02:26:48.741Z,39.87
2023-04-20T02:27:48.729Z,39.88
2023-04-20T02:28:48.742Z,39.87
2023-04-20T02:29:48.739Z,39.86
2023-04-20T02:30:48.742Z,39.85
2023-04-20T02:31:48.917Z,39.86
2023-04-20T02:32:48.813Z,39.85
2023-04-20T02:33:48.742Z,39.86
2023-04-20T02:34:48.765Z,39.86
2023-04-20T02:35:48.742Z,39.88
2023-04-20T02:36:48.739Z,39.87
2023-04-20T02:37:48.735Z,39.85
2023-04-20T02:38:48.738Z,39.88
2023-04-20T02:39:48.736Z,39.87
2023-04-20T02:40:48.761Z,39.89
2023-04-20T02:41:48.731Z,39.87
2023-04-20T02:42:48.733Z,39.89
2023-04-20T02:43:48.786Z,39.86
2023-04-20T02:44:48.734Z,39.87
2023-04-20T02:45:48.719Z,39.87
2023-04-20T02:46:48.853Z,39.89
2023-04-20T02:47:48.811Z,39.87
2023-04-20T02:48:48.713Z,39.88
2023-04-20T02:49:48.712Z,39.88
2023-04-20T02:50:48.740Z,39.86
2023-04-20T02:51:48.714Z,39.87
2023-04-20T02:52:48.778Z,39.87
2023-04-20T02:53:48.708Z,39.85
2023-04-20T02:54:48.693Z,39.89
2023-04-20T02:55:48.689Z,39.88
2023-04-20T02:56:48.693Z,39.85
2023-04-20T02:57:48.695Z,39.87
2023-04-20T02:58:48.692Z,39.86
2023-04-20T02:59:48.683Z,39.87
2023-04-20T03:00:48.688Z,39.88
2023-04-20T03:01:48.687Z,39.85
2023-04-20T03:02:48.817Z,39.86
2023-04-20T03:03:48.789Z,39.85
2023-04-20T03:04:48.705Z,39.86
2023-04-20T03:05:48.673Z,39.85
2023-04-20T03:06:48.693Z,39.88
2023-04-20T03:07:48.665Z,39.88
2023-04-20T03:08:48.659Z,39.87
2023-04-20T03:09:48.665Z,39.87
2023-04-20T03:10:48.680Z,39.86
2023-04-20T03:11:48.672Z,39.87
2023-04-20T03:12:48.653Z,39.85
2023-04-20T03:13:48.642Z,39.83
2023-04-20T03:14:48.644Z,39.85
2023-04-20T03:15:48.631Z,39.84
2023-04-20T03:16:48.739Z,39.86
2023-04-20T03:17:48.714Z,39.85
2023-04-20T03:18:48.629Z,39.88
2023-04-20T03:19:48.626Z,39.85
2023-04-20T03:20:48.615Z,39.85
2023-04-20T03:21:48.601Z,39.81
2023-04-20T03:22:48.654Z,39.78
2023-04-20T03:23:48.648Z,39.73
2023-04-20T03:24:49.100Z,39.71
2023-04-20T03:25:48.756Z,39.69
2023-04-20T03:26:48.810Z,39.64
2023-04-20T03:27:48.883Z,39.62
2023-04-20T03:28:48.953Z,39.57
2023-04-20T03:29:48.977Z,39.55
2023-04-20T03:30:49.037Z,39.53
2023-04-20T03:31:49.100Z,39.48
2023-04-20T03:32:49.167Z,39.46
2023-04-20T03:33:49.197Z,39.39
2023-04-20T03:34:49.254Z,39.36
2023-04-20T03:35:49.283Z,39.38
2023-04-20T03:36:49.318Z,39.35
2023-04-20T03:37:49.376Z,39.34
2023-04-20T03:38:49.444Z,39.32
2023-04-20T03:39:49.460Z,39.32
2023-04-20T03:40:49.508Z,39.29
2023-04-20T03:41:49.544Z,39.26
2023-04-20T03:42:49.584Z,39.24
2023-04-20T03:43:49.622Z,39.22
2023-04-20T03:44:49.660Z,39.25
2023-04-20T03:45:49.793Z,39.24
2023-04-20T03:46:49.721Z,39.19
2023-04-20T03:47:49.844Z,39.16
2023-04-20T03:48:49.780Z,39.18
2023-04-20T03:49:49.817Z,39.19
2023-04-20T03:50:49.840Z,39.19
2023-04-20T03:51:49.864Z,39.18
2023-04-20T03:52:49.906Z,39.18
2023-04-20T03:53:49.942Z,39.19
2023-04-20T03:54:50.026Z,39.16
2023-04-20T03:55:50.256Z,39.16
2023-04-20T03:56:50.034Z,39.13
2023-04-20T03:57:50.066Z,39.14
2023-04-20T03:58:50.096Z,39.14
2023-04-20T03:59:50.136Z,39.12
2023-04-20T04:00:50.161Z,39.12
2023-04-20T04:01:50.226Z,39.11
2023-04-20T04:02:50.306Z,39.12
2023-04-20T04:03:50.404Z,39.11
2023-04-20T04:04:50.364Z,39.10
2023-04-20T04:05:50.320Z,39.07
2023-04-20T04:06:50.334Z,39.09
2023-04-20T04:07:50.368Z,39.05
2023-04-20T04:08:50.395Z,39.07
2023-04-20T04:09:50.418Z,39.06
2023-04-20T04:10:50.475Z,39.03
2023-04-20T04:11:50.469Z,39.02
2023-04-20T04:12:50.499Z,38.98
2023-04-20T04:13:50.529Z,39.00
2023-04-20T04:14:50.533Z,38.95
2023-04-20T04:15:50.560Z,38.93
2023-04-20T04:16:50.619Z,38.93
2023-04-20T04:17:50.635Z,38.89
2023-04-20T04:18:50.634Z,38.89
2023-04-20T04:19:50.647Z,38.90
2023-04-20T04:20:50.685Z,38.91
2023-04-20T04:21:50.696Z,38.89
2023-04-20T04:22:50.723Z,38.90
2023-04-20T04:23:50.754Z,38.94
2023-04-20T04:24:50.788Z,38.90
2023-04-20T04:25:50.799Z,38.90
2023-04-20T04:26:50.836Z,38.87
2023-04-20T04:27:50.850Z,38.89
2023-04-20T04:28:50.875Z,38.90
2023-04-20T04:29:50.894Z,38.89
2023-04-20T04:30:50.927Z,38.89
2023-04-20T04:31:50.991Z,38.88
2023-04-20T04:32:51.043Z,38.87
2023-04-20T04:33:50.990Z,38.88
2023-04-20T04:34:51.014Z,38.86
2023-04-20T04:35:51.126Z,38.83
2023-04-20T04:36:51.087Z,38.80
2023-04-20T04:37:51.113Z,38.83
2023-04-20T04:38:51.146Z,38.83
2023-04-20T04:39:51.205Z,38.86
2023-04-20T04:40:51.200Z,38.84
2023-04-20T04:41:51.242Z,38.84
2023-04-20T04:42:51.292Z,38.84
2023-04-20T04:43:51.288Z,38.86
2023-04-20T04:44:51.313Z,38.86
2023-04-20T04:45:51.341Z,38.84
2023-04-20T04:46:51.362Z,38.83
2023-04-20T04:47:51.420Z,38.81
2023-04-20T04:48:51.422Z,38.81
2023-04-20T04:49:51.443Z,38.78
2023-04-20T04:50:51.473Z,38.82
2023-04-20T04:51:51.506Z,38.83
2023-04-20T04:52:51.535Z,38.82
2023-04-20T04:53:51.546Z,38.83
2023-04-20T04:54:51.577Z,38.83
2023-04-20T04:55:51.596Z,38.85
2023-04-20T04:56:51.626Z,38.81
2023-04-20T04:57:51.676Z,38.86
2023-04-20T04:58:51.736Z,38.87
2023-04-20T04:59:51.727Z,38.85
2023-04-20T05:00:51.763Z,38.85
2023-04-20T05:01:51.826Z,38.85
2023-04-20T05:02:51.901Z,38.86
2023-04-20T05:03:52.173Z,38.85
2023-04-20T05:04:51.925Z,38.81
2023-04-20T05:05:51.870Z,38.79
2023-04-20T05:06:51.897Z,38.77
2023-04-20T05:07:51.927Z,38.80
2023-04-20T05:08:51.948Z,38.77
2023-04-20T05:09:51.964Z,38.64
2023-04-20T05:10:51.988Z,38.44
2023-04-20T05:11:52.024Z,38.10
2023-04-20T05:12:52.023Z,38.00
2023-04-20T05:13:52.278Z,37.77
2023-04-20T05:14:52.091Z,37.48
2023-04-20T05:15:52.078Z,37.37
2023-04-20T05:16:52.082Z,37.33
2023-04-20T05:17:52.268Z,37.17
2023-04-20T05:18:52.122Z,37.15
2023-04-20T05:19:52.127Z,37.20
2023-04-20T05:20:52.136Z,37.42
2023-04-20T05:21:52.128Z,37.66
2023-04-20T05:22:52.143Z,37.81
2023-04-20T05:23:52.290Z,37.90
2023-04-20T05:24:52.156Z,37.82
2023-04-20T05:25:52.171Z,37.53
2023-04-20T05:26:52.190Z,37.58
2023-04-20T05:27:52.216Z,37.90
2023-04-20T05:28:52.236Z,37.76
2023-04-20T05:29:52.252Z,37.77
2023-04-20T05:30:52.434Z,37.83
2023-04-20T05:31:52.298Z,37.85
2023-04-20T05:32:52.773Z,37.84
2023-04-20T05:33:52.790Z,37.81
2023-04-20T05:34:52.383Z,37.83
2023-04-20T05:35:52.789Z,37.83
2023-04-20T05:36:52.407Z,37.85
2023-04-20T05:37:52.458Z,37.81
2023-04-20T05:38:52.788Z,37.70
2023-04-20T05:39:52.458Z,37.65
2023-04-20T05:40:52.500Z,37.70
2023-04-20T05:41:52.784Z,37.71
2023-04-20T05:42:52.509Z,37.67
2023-04-20T05:43:52.509Z,37.68
2023-04-20T05:44:52.538Z,37.68
2023-04-20T05:45:52.568Z,37.70
2023-04-20T05:46:52.821Z,37.62
2023-04-20T05:47:52.606Z,37.56
2023-04-20T05:48:52.796Z,37.62
2023-04-20T05:49:52.595Z,37.66
2023-04-20T05:50:52.649Z,37.64
2023-04-20T05:51:52.662Z,37.66
2023-04-20T05:52:52.676Z,37.63
2023-04-20T05:53:52.896Z,37.57
2023-04-20T05:54:52.744Z,37.57
2023-04-20T05:55:52.741Z,37.56
2023-04-20T05:56:52.721Z,37.60
2023-04-20T05:57:52.752Z,37.51
2023-04-20T05:59:00.228Z,37.56
2023-04-20T05:59:54.784Z,37.57
2023-04-20T06:00:52.699Z,37.56
2023-04-20T06:01:52.770Z,37.53
2023-04-20T06:02:53.573Z,37.47
2023-04-20T06:03:53.271Z,37.51
2023-04-20T06:04:52.764Z,37.50
2023-04-20T06:05:52.837Z,37.44
2023-04-20T06:06:52.580Z,37.47
2023-04-20T06:07:52.636Z,37.48
2023-04-20T06:08:53.194Z,37.43
2023-04-20T06:09:52.486Z,37.46
2023-04-20T06:10:52.472Z,37.44
2023-04-20T06:11:52.435Z,37.48
2023-04-20T06:12:52.415Z,37.46
2023-04-20T06:13:52.865Z,37.46
2023-04-20T06:14:52.364Z,37.42
2023-04-20T06:15:52.395Z,37.40
2023-04-20T06:16:52.311Z,37.40
2023-04-20T06:17:52.359Z,37.45
2023-04-20T06:18:52.430Z,37.41
2023-04-20T06:19:52.326Z,37.35
2023-04-20T06:20:52.336Z,37.37
2023-04-20T06:21:52.350Z,37.37
2023-04-20T06:22:52.361Z,37.30
2023-04-20T06:23:52.862Z,37.30
2023-04-20T06:24:52.369Z,37.30
2023-04-20T06:25:52.403Z,37.35
2023-04-20T06:26:52.421Z,37.33
2023-04-20T06:27:53.009Z,37.37
2023-04-20T06:28:52.815Z,37.40
2023-04-20T06:29:52.514Z,37.37
2023-04-20T06:30:52.408Z,37.34
2023-04-20T06:31:52.383Z,37.29
2023-04-20T06:32:52.471Z,37.34
2023-04-20T06:33:52.342Z,37.33
2023-04-20T06:34:52.290Z,37.34
2023-04-20T06:35:52.266Z,37.37
2023-04-20T06:36:52.343Z,37.39
2023-04-20T06:37:52.227Z,37.41
2023-04-20T06:38:52.208Z,37.41
2023-04-20T06:39:55.379Z,37.37
2023-04-20T06:40:52.178Z,37.41
2023-04-20T06:41:52.355Z,37.42
2023-04-20T06:42:52.143Z,37.42
2023-04-20T06:43:52.332Z,37.44
2023-04-20T06:44:52.353Z,37.47
2023-04-20T06:45:52.130Z,37.50
2023-04-20T06:46:52.091Z,37.54
2023-04-20T06:47:52.117Z,37.49
2023-04-20T06:48:52.373Z,37.51
2023-04-20T06:49:52.422Z,37.50
2023-04-20T06:50:52.029Z,37.49
2023-04-20T06:52:23.774Z,37.47
2023-04-20T06:52:55.151Z,37.46
2023-04-20T06:54:07.987Z,37.48
2023-04-20T06:55:59.281Z,37.49
2023-04-20T06:56:59.293Z,37.51
2023-04-20T06:57:55.044Z,37.53
2023-04-20T06:58:52.262Z,37.53
2023-04-20T06:59:51.780Z,37.52
2023-04-20T07:00:51.771Z,37.50
2023-04-20T07:01:51.882Z,37.46
2023-04-20T07:02:51.873Z,37.44
2023-04-20T07:03:51.924Z,37.44
2023-04-20T07:04:51.855Z,37.42
2023-04-20T07:05:51.647Z,37.42
2023-04-20T07:06:53.941Z,37.39
2023-04-20T07:07:54.817Z,37.39
2023-04-20T07:08:51.824Z,37.40
2023-04-20T07:09:51.558Z,37.41
2023-04-20T07:10:51.563Z,37.42
2023-04-20T07:11:52.284Z,37.43
2023-04-20T07:12:54.753Z,37.43
2023-04-20T07:13:51.859Z,37.39
2023-04-20T07:14:51.469Z,37.41
2023-04-20T07:15:51.560Z,37.39
2023-04-20T07:16:51.862Z,37.36
2023-04-20T07:17:51.433Z,37.38
2023-04-20T07:18:51.865Z,37.36
2023-04-20T07:19:51.900Z,37.33
2023-04-20T07:20:51.310Z,37.32
2023-04-20T07:21:51.322Z,37.27
2023-04-20T07:22:51.329Z,37.25
2023-04-20T07:23:51.329Z,37.27
2023-04-20T07:24:51.259Z,37.30
2023-04-20T07:25:51.282Z,37.30
2023-04-20T07:26:51.402Z,37.33
2023-04-20T07:27:51.209Z,37.35
2023-04-20T07:28:51.140Z,37.34
2023-04-20T07:29:51.157Z,37.31
2023-04-20T07:30:51.093Z,37.29
2023-04-20T07:31:51.141Z,37.29
2023-04-20T07:32:51.092Z,37.27
2023-04-20T07:33:51.440Z,37.28
2023-04-20T07:34:51.022Z,37.20
2023-04-20T07:35:50.987Z,37.18
2023-04-20T07:36:50.952Z,37.16
2023-04-20T07:37:50.946Z,37.15
2023-04-20T07:38:51.363Z,37.19
2023-04-20T07:39:52.010Z,37.18
2023-04-20T07:40:50.999Z,37.10
2023-04-20T07:41:51.068Z,37.16
2023-04-20T07:42:51.362Z,37.16
2023-04-20T07:43:51.071Z,37.18
2023-04-20T07:44:51.070Z,37.15
2023-04-20T07:45:51.109Z,37.15
2023-04-20T07:46:51.114Z,37.18
2023-04-20T07:47:51.470Z,37.21
2023-04-20T07:48:51.155Z,37.18
2023-04-20T07:49:51.181Z,37.21
2023-04-20T07:50:51.207Z,37.17
2023-04-20T07:51:51.214Z,37.14
2023-04-20T07:52:51.357Z,37.16
2023-04-20T07:53:51.375Z,37.14
2023-04-20T07:54:51.318Z,37.14
2023-04-20T07:55:51.274Z,37.15
2023-04-20T07:56:54.459Z,37.09
2023-04-20T07:57:51.260Z,37.09
2023-04-20T07:58:51.216Z,37.09
2023-04-20T07:59:52.357Z,37.09
2023-04-20T08:00:51.353Z,37.13
2023-04-20T08:01:56.282Z,37.14
2023-04-20T08:02:51.178Z,37.15
2023-04-20T08:03:50.301Z,37.19
2023-04-20T08:04:51.673Z,37.17
2023-04-20T08:05:51.423Z,37.18
2023-04-20T08:06:51.001Z,37.19
2023-04-20T08:07:51.345Z,37.19
2023-04-20T08:08:50.954Z,37.19
2023-04-20T08:09:50.934Z,37.19
2023-04-20T08:10:51.061Z,37.20
2023-04-20T08:11:51.347Z,37.19
2023-04-20T08:12:52.566Z,37.21
2023-04-20T08:13:55.721Z,37.23
2023-04-20T08:14:51.832Z,37.23
2023-04-20T08:15:50.887Z,37.23
2023-04-20T08:16:50.849Z,37.20
2023-04-20T08:17:50.862Z,37.22
2023-04-20T08:18:50.847Z,37.18
2023-04-20T08:19:50.793Z,37.20
2023-04-20T08:20:50.762Z,37.20
2023-04-20T08:21:50.728Z,37.18
2023-04-20T08:22:50.733Z,37.15
2023-04-20T08:23:50.861Z,37.16
2023-04-20T08:24:50.659Z,37.12
2023-04-20T08:25:50.654Z,37.11
2023-04-20T08:26:50.763Z,37.10
2023-04-20T08:27:50.599Z,37.10
2023-04-20T08:28:50.847Z,37.07
2023-04-20T08:29:50.604Z,37.09
2023-04-20T08:30:50.616Z,37.08
2023-04-20T08:31:51.807Z,37.07
2023-04-20T08:32:50.690Z,37.04
2023-04-20T08:33:50.903Z,37.01
2023-04-20T08:34:50.849Z,37.03
2023-04-20T08:35:50.667Z,37.04
2023-04-20T08:36:50.675Z,37.02
2023-04-20T08:37:50.681Z,37.03
2023-04-20T08:38:50.885Z,37.02
2023-04-20T08:39:50.706Z,37.04
2023-04-20T08:40:50.719Z,37.02
2023-04-20T08:41:50.740Z,37.05
2023-04-20T08:42:50.879Z,37.06
2023-04-20T08:43:50.866Z,37.05
2023-04-20T08:44:50.784Z,37.01
2023-04-20T08:45:50.808Z,37.01
2023-04-20T08:46:50.820Z,37.02
2023-04-20T08:47:50.900Z,37.01
2023-04-20T08:48:50.837Z,36.99
2023-04-20T08:49:50.849Z,36.98
2023-04-20T08:50:50.859Z,37.02
2023-04-20T08:51:50.885Z,37.00
2023-04-20T08:52:51.356Z,36.99
2023-04-20T08:53:50.893Z,36.96
2023-04-20T08:54:56.468Z,36.97
2023-04-20T08:55:50.894Z,36.95
2023-04-20T08:56:50.847Z,36.98
2023-04-20T08:57:50.821Z,36.91
2023-04-20T08:58:51.099Z,36.88
2023-04-20T08:59:50.855Z,36.90
2023-04-20T09:00:50.759Z,36.90
2023-04-20T09:01:50.767Z,36.88
2023-04-20T09:02:50.870Z,36.83
2023-04-20T09:03:50.870Z,36.82
2023-04-20T09:04:50.930Z,36.79
2023-04-20T09:05:50.644Z,36.81
2023-04-20T09:06:50.602Z,36.83
2023-04-20T09:07:50.581Z,36.77
2023-04-20T09:08:50.562Z,36.72
2023-04-20T09:09:50.856Z,36.71
2023-04-20T09:10:50.514Z,36.65
2023-04-20T09:11:50.489Z,36.68
2023-04-20T09:12:50.483Z,36.67
2023-04-20T09:13:50.444Z,36.66
2023-04-20T09:14:50.891Z,36.61
2023-04-20T09:15:50.443Z,36.61
2023-04-20T09:16:50.556Z,36.64
2023-04-20T09:17:50.407Z,36.60
2023-04-20T09:18:50.352Z,36.57
2023-04-20T09:19:50.359Z,36.60
2023-04-20T09:20:50.261Z,36.62
2023-04-20T09:21:50.359Z,36.63
2023-04-20T09:22:50.211Z,36.62
2023-04-20T09:23:50.182Z,36.58
2023-04-20T09:24:50.370Z,36.64
2023-04-20T09:25:50.121Z,36.72
2023-04-20T09:26:50.115Z,36.80
2023-04-20T09:27:50.081Z,37.10
2023-04-20T09:28:50.049Z,37.32
2023-04-20T09:29:50.365Z,37.49
2023-04-20T09:30:50.008Z,37.52
2023-04-20T09:31:50.043Z,37.52
2023-04-20T09:32:49.949Z,37.31
2023-04-20T09:33:49.906Z,37.21
2023-04-20T09:34:50.387Z,37.17
2023-04-20T09:35:49.859Z,37.06
2023-04-20T09:36:49.833Z,37.03
2023-04-20T09:37:49.781Z,36.87
2023-04-20T09:38:49.877Z,36.89
2023-04-20T09:39:49.981Z,36.94
2023-04-20T09:40:49.716Z,36.87
2023-04-20T09:41:49.673Z,36.86
2023-04-20T09:42:49.652Z,36.82
2023-04-20T09:43:49.895Z,36.80
2023-04-20T09:44:50.389Z,36.75
2023-04-20T09:45:49.676Z,36.71
2023-04-20T09:46:49.666Z,36.72
2023-04-20T09:47:50.124Z,36.75
2023-04-20T09:48:49.475Z,36.77
2023-04-20T09:49:49.588Z,36.79
2023-04-20T09:50:51.473Z,36.69
2023-04-20T09:51:49.401Z,36.66
2023-04-20T09:52:50.910Z,36.69
2023-04-20T09:53:50.738Z,36.66
2023-04-20T09:54:49.522Z,36.60
2023-04-20T09:55:49.402Z,36.54
2023-04-20T09:56:49.613Z,36.56
2023-04-20T09:57:49.329Z,36.53
2023-04-20T09:58:49.282Z,36.60
2023-04-20T09:59:51.367Z,36.53
2023-04-20T10:00:49.394Z,36.55
2023-04-20T10:01:49.330Z,36.43
2023-04-20T10:02:49.562Z,36.43
2023-04-20T10:03:49.250Z,36.43
2023-04-20T10:04:49.531Z,36.46
2023-04-20T10:05:49.412Z,36.38
2023-04-20T10:06:49.459Z,36.35
2023-04-20T10:07:50.884Z,36.35
2023-04-20T10:08:49.100Z,36.36
2023-04-20T10:09:49.382Z,36.32
2023-04-20T10:10:49.110Z,36.31
2023-04-20T10:11:53.058Z,36.30
2023-04-20T10:12:48.962Z,36.39
2023-04-20T10:13:48.913Z,36.33
2023-04-20T10:14:49.378Z,36.35
2023-04-20T10:15:48.852Z,36.23
2023-04-20T10:16:48.858Z,36.26
2023-04-20T10:17:48.898Z,36.21
2023-04-20T10:18:48.848Z,36.13
2023-04-20T10:19:48.880Z,36.09
2023-04-20T10:20:48.701Z,36.18
2023-04-20T10:21:48.668Z,36.27
2023-04-20T10:22:48.662Z,36.25
2023-04-20T10:23:48.609Z,36.22
2023-04-20T10:24:48.898Z,36.17
2023-04-20T10:25:48.553Z,36.11
2023-04-20T10:26:48.531Z,36.18
2023-04-20T10:27:48.476Z,36.20
2023-04-20T10:28:48.447Z,36.26
2023-04-20T10:29:48.911Z,36.26
2023-04-20T10:30:48.428Z,36.31
2023-04-20T10:31:48.384Z,36.32
2023-04-20T10:32:48.401Z,36.32
2023-04-20T10:33:48.311Z,36.31
2023-04-20T10:34:48.368Z,36.30
2023-04-20T10:35:48.251Z,36.30
2023-04-20T10:36:48.387Z,36.29
2023-04-20T10:37:48.210Z,36.32
2023-04-20T10:38:48.182Z,36.25
2023-04-20T10:39:48.411Z,36.27
2023-04-20T10:40:48.136Z,36.37
2023-04-20T10:41:48.116Z,36.34
2023-04-20T10:42:48.531Z,36.33
2023-04-20T10:43:48.548Z,36.28
2023-04-20T10:44:48.800Z,36.29
2023-04-20T10:45:48.652Z,36.26
2023-04-20T10:46:48.598Z,36.28
2023-04-20T10:47:48.070Z,36.29
2023-04-20T10:48:47.947Z,36.29
2023-04-20T10:49:48.388Z,36.30
2023-04-20T10:50:47.948Z,36.28
2023-04-20T10:51:47.883Z,36.27
2023-04-20T10:52:47.846Z,36.25
2023-04-20T10:53:47.838Z,36.24
2023-04-20T10:54:47.891Z,36.25
2023-04-20T10:55:47.788Z,36.28
2023-04-20T10:56:47.735Z,36.22
2023-04-20T10:57:47.700Z,36.25
2023-04-20T10:58:47.702Z,36.25
2023-04-20T10:59:47.894Z,36.22
2023-04-20T11:00:47.628Z,36.22
2023-04-20T11:01:47.700Z,36.18
2023-04-20T11:02:47.669Z,36.20
2023-04-20T11:03:47.684Z,36.21
2023-04-20T11:04:47.937Z,36.14
2023-04-20T11:05:47.495Z,36.16
2023-04-20T11:06:47.508Z,36.17
2023-04-20T11:07:47.462Z,36.17
2023-04-20T11:08:47.443Z,36.19
2023-04-20T11:09:48.397Z,36.17
2023-04-20T11:10:47.404Z,36.24
2023-04-20T11:11:47.359Z,36.25
2023-04-20T11:12:47.354Z,36.29
2023-04-20T11:13:47.320Z,36.23
2023-04-20T11:14:47.404Z,36.29
2023-04-20T11:15:47.273Z,36.22
2023-04-20T11:16:51.597Z,36.22
2023-04-20T11:17:47.244Z,36.30
2023-04-20T11:18:47.213Z,36.30
2023-04-20T11:19:47.401Z,36.37
2023-04-20T11:20:47.161Z,36.33
2023-04-20T11:21:47.143Z,36.33
2023-04-20T11:22:47.517Z,36.31
2023-04-20T11:23:47.106Z,36.32
2023-04-20T11:24:47.096Z,36.34
2023-04-20T11:25:47.426Z,36.34
2023-04-20T11:26:47.049Z,36.42
2023-04-20T11:27:47.401Z,36.36
2023-04-20T11:28:47.436Z,36.40
2023-04-20T11:29:47.036Z,36.39
2023-04-20T11:30:47.297Z,36.41
2023-04-20T11:31:47.025Z,36.41
2023-04-20T11:32:47.003Z,36.42
2023-04-20T11:33:46.996Z,36.45
2023-04-20T11:35:45.883Z,36.47
2023-04-20T11:36:46.866Z,36.56
2023-04-20T11:37:46.836Z,36.56
2023-04-20T11:38:46.841Z,36.53
2023-04-20T11:39:46.778Z,36.52
2023-04-20T11:40:46.771Z,36.56
2023-04-20T11:41:46.743Z,36.57
2023-04-20T11:42:46.724Z,36.58
2023-04-20T11:43:46.685Z,36.57
2023-04-20T11:44:46.922Z,36.61
2023-04-20T11:45:46.704Z,36.66
2023-04-20T11:46:46.613Z,36.62
2023-04-20T11:47:46.627Z,36.61
2023-04-20T11:48:46.594Z,36.57
2023-04-20T11:49:46.909Z,36.60
2023-04-20T11:50:46.543Z,36.63
2023-04-20T11:51:46.513Z,36.63
2023-04-20T11:52:46.911Z,36.60
2023-04-20T11:53:46.442Z,36.58
2023-04-20T11:54:46.483Z,36.60
2023-04-20T11:55:46.408Z,36.67
2023-04-20T11:56:46.369Z,36.69
2023-04-20T11:57:46.341Z,36.65
2023-04-20T11:58:46.332Z,36.62
2023-04-20T11:59:46.296Z,36.63
2023-04-20T12:00:46.275Z,36.64
2023-04-20T12:01:46.286Z,36.57
2023-04-20T12:02:46.338Z,36.56
2023-04-20T12:03:47.721Z,36.57
2023-04-20T12:04:46.419Z,36.59
2023-04-20T12:05:46.236Z,36.62
2023-04-20T12:06:46.114Z,36.59
2023-04-20T12:07:46.091Z,36.56
2023-04-20T12:08:46.052Z,36.53
2023-04-20T12:09:46.415Z,36.55
2023-04-20T12:10:46.058Z,36.58
2023-04-20T12:11:45.995Z,36.60
2023-04-20T12:12:45.967Z,36.61
2023-04-20T12:13:45.943Z,36.57
2023-04-20T12:14:46.416Z,36.56
2023-04-20T12:15:45.959Z,36.58
2023-04-20T12:16:45.876Z,36.57
2023-04-20T12:17:45.876Z,36.60
2023-04-20T12:18:45.811Z,36.61
2023-04-20T12:19:45.776Z,36.60
2023-04-20T12:20:45.770Z,36.59
2023-04-20T12:21:45.718Z,36.59
2023-04-20T12:22:45.695Z,36.53
2023-04-20T12:23:45.665Z,36.58
2023-04-20T12:24:45.643Z,36.55
2023-04-20T12:25:45.605Z,36.61
2023-04-20T12:26:45.609Z,36.56
2023-04-20T12:27:45.645Z,36.48
2023-04-20T12:28:45.513Z,36.46
2023-04-20T12:29:45.928Z,36.46
2023-04-20T12:30:45.470Z,36.47
2023-04-20T12:31:45.515Z,36.47
2023-04-20T12:32:45.449Z,36.45
2023-04-20T12:33:45.383Z,36.49
2023-04-20T12:34:45.354Z,36.48
2023-04-20T12:35:45.347Z,36.54
2023-04-20T12:36:45.297Z,36.58
2023-04-20T12:37:45.274Z,36.56
2023-04-20T12:38:45.249Z,36.57
2023-04-20T12:39:45.233Z,36.56
2023-04-20T12:40:45.190Z,36.65
2023-04-20T12:41:45.156Z,36.69
2023-04-20T12:42:45.157Z,36.72
2023-04-20T12:43:45.104Z,36.58
2023-04-20T12:44:45.075Z,36.55
2023-04-20T12:45:45.063Z,36.56
2023-04-20T12:46:45.069Z,36.59
2023-04-20T12:47:45.042Z,36.56
2023-04-20T12:48:44.952Z,36.53
2023-04-20T12:49:44.942Z,36.53
2023-04-20T12:50:44.927Z,36.51
2023-04-20T12:51:44.869Z,36.55
2023-04-20T12:52:44.864Z,36.56
2023-04-20T12:53:45.431Z,36.52
2023-04-20T12:54:44.990Z,36.51